sensor_id;sensor_type;location;lat;lon;timestamp;temperature;humidity
21580;DHT22;10951;59.656;9.666;2022-09-01T00:00:00;9.80;94.70
21580;DHT22;10951;59.656;9.666;2022-09-01T00:02:32;9.90;94.70
21580;DHT22;10951;59.656;9.666;2022-09-01T00:04:59;10.00;94.90
21580;DHT22;10951;59.656;9.666;2022-09-01T00:07:27;10.00;94.90
21580;DHT22;10951;59.656;9.666;2022-09-01T00:10:02;9.90;95.10
21580;DHT22;10951;59.656;9.666;2022-09-01T00:12:29;9.90;95.80
21580;DHT22;10951;59.656;9.666;2022-09-01T00:14:57;9.80;95.80
21580;DHT22;10951;59.656;9.666;2022-09-01T00:17:25;9.60;96.10
21580;DHT22;10951;59.656;9.666;2022-09-01T00:19:52;9.50;96.50
21580;DHT22;10951;59.656;9.666;2022-09-01T00:22:19;9.40;96.90
21580;DHT22;10951;59.656;9.666;2022-09-01T00:24:46;9.20;97.20
21580;DHT22;10951;59.656;9.666;2022-09-01T00:27:13;9.20;97.40
21580;DHT22;10951;59.656;9.666;2022-09-01T00:29:40;9.10;97.50
21580;DHT22;10951;59.656;9.666;2022-09-01T00:32:10;9.10;97.80
21580;DHT22;10951;59.656;9.666;2022-09-01T00:34:37;9.10;98.30
21580;DHT22;10951;59.656;9.666;2022-09-01T00:37:04;9.10;98.40
21580;DHT22;10951;59.656;9.666;2022-09-01T00:39:31;9.10;99.00
21580;DHT22;10951;59.656;9.666;2022-09-01T00:41:58;9.00;99.00
21580;DHT22;10951;59.656;9.666;2022-09-01T00:44:25;8.90;99.20
21580;DHT22;10951;59.656;9.666;2022-09-01T00:46:58;8.90;99.30
21580;DHT22;10951;59.656;9.666;2022-09-01T00:49:34;8.80;99.60
21580;DHT22;10951;59.656;9.666;2022-09-01T00:52:27;8.70;99.90
21580;DHT22;10951;59.656;9.666;2022-09-01T00:54:59;8.60;99.90
21580;DHT22;10951;59.656;9.666;2022-09-01T00:57:28;8.50;99.90
21580;DHT22;10951;59.656;9.666;2022-09-01T01:00:01;8.50;99.90
21580;DHT22;10951;59.656;9.666;2022-09-01T01:02:29;8.50;99.90
21580;DHT22;10951;59.656;9.666;2022-09-01T01:04:56;8.40;99.90
21580;DHT22;10951;59.656;9.666;2022-09-01T01:07:26;8.40;99.90
21580;DHT22;10951;59.656;9.666;2022-09-01T01:09:54;8.40;99.90
21580;DHT22;10951;59.656;9.666;2022-09-01T01:12:21;8.30;99.90
21580;DHT22;10951;59.656;9.666;2022-09-01T01:14:49;8.30;99.90
21580;DHT22;10951;59.656;9.666;2022-09-01T01:17:19;8.40;99.90
21580;DHT22;10951;59.656;9.666;2022-09-01T01:19:53;8.30;99.90
21580;DHT22;10951;59.656;9.666;2022-09-01T01:28:38;8.30;99.90
21580;DHT22;10951;59.656;9.666;2022-09-01T01:31:12;8.40;99.90
21580;DHT22;10951;59.656;9.666;2022-09-01T01:33:41;8.40;99.90
21580;DHT22;10951;59.656;9.666;2022-09-01T01:38:45;8.30;99.90
21580;DHT22;10951;59.656;9.666;2022-09-01T01:41:13;8.30;99.90
21580;DHT22;10951;59.656;9.666;2022-09-01T01:43:41;8.30;99.90
21580;DHT22;10951;59.656;9.666;2022-09-01T01:46:09;8.20;99.90
21580;DHT22;10951;59.656;9.666;2022-09-01T01:48:39;8.20;99.90
21580;DHT22;10951;59.656;9.666;2022-09-01T01:51:08;8.20;99.90
21580;DHT22;10951;59.656;9.666;2022-09-01T01:53:36;8.20;99.90
21580;DHT22;10951;59.656;9.666;2022-09-01T01:56:03;8.10;99.90
21580;DHT22;10951;59.656;9.666;2022-09-01T01:58:33;8.00;99.90
21580;DHT22;10951;59.656;9.666;2022-09-01T02:01:07;8.00;99.90
21580;DHT22;10951;59.656;9.666;2022-09-01T02:03:36;8.00;99.90
21580;DHT22;10951;59.656;9.666;2022-09-01T02:06:09;8.00;99.90
21580;DHT22;10951;59.656;9.666;2022-09-01T02:08:39;8.00;99.90
21580;DHT22;10951;59.656;9.666;2022-09-01T02:11:07;7.90;99.90
21580;DHT22;10951;59.656;9.666;2022-09-01T02:13:34;7.80;99.90
21580;DHT22;10951;59.656;9.666;2022-09-01T02:16:05;7.70;99.90
21580;DHT22;10951;59.656;9.666;2022-09-01T02:18:36;7.70;99.90
21580;DHT22;10951;59.656;9.666;2022-09-01T02:21:05;7.70;99.90
21580;DHT22;10951;59.656;9.666;2022-09-01T02:23:40;7.70;99.90
21580;DHT22;10951;59.656;9.666;2022-09-01T02:26:08;7.70;99.90
21580;DHT22;10951;59.656;9.666;2022-09-01T02:28:44;7.70;99.90
21580;DHT22;10951;59.656;9.666;2022-09-01T02:31:18;7.60;99.90
21580;DHT22;10951;59.656;9.666;2022-09-01T02:33:45;7.60;99.90
21580;DHT22;10951;59.656;9.666;2022-09-01T02:36:15;7.60;99.90
21580;DHT22;10951;59.656;9.666;2022-09-01T02:38:43;7.60;99.90
21580;DHT22;10951;59.656;9.666;2022-09-01T02:41:13;7.50;99.90
21580;DHT22;10951;59.656;9.666;2022-09-01T02:43:41;7.50;99.90
21580;DHT22;10951;59.656;9.666;2022-09-01T02:46:12;7.50;99.90
21580;DHT22;10951;59.656;9.666;2022-09-01T02:48:43;7.50;99.90
21580;DHT22;10951;59.656;9.666;2022-09-01T02:51:15;7.50;99.90
21580;DHT22;10951;59.656;9.666;2022-09-01T02:53:44;7.40;99.90
21580;DHT22;10951;59.656;9.666;2022-09-01T02:56:16;7.50;99.90
21580;DHT22;10951;59.656;9.666;2022-09-01T02:58:45;7.40;99.90
21580;DHT22;10951;59.656;9.666;2022-09-01T03:01:13;7.40;99.90
21580;DHT22;10951;59.656;9.666;2022-09-01T03:03:40;7.40;99.90
21580;DHT22;10951;59.656;9.666;2022-09-01T03:06:07;7.30;99.90
21580;DHT22;10951;59.656;9.666;2022-09-01T03:08:34;7.30;99.90
21580;DHT22;10951;59.656;9.666;2022-09-01T03:11:05;7.30;99.90
21580;DHT22;10951;59.656;9.666;2022-09-01T03:13:40;7.30;99.90
21580;DHT22;10951;59.656;9.666;2022-09-01T03:16:08;7.30;99.90
21580;DHT22;10951;59.656;9.666;2022-09-01T03:18:36;7.30;99.90
21580;DHT22;10951;59.656;9.666;2022-09-01T03:21:06;7.30;99.90
21580;DHT22;10951;59.656;9.666;2022-09-01T03:23:35;7.40;99.90
21580;DHT22;10951;59.656;9.666;2022-09-01T03:26:03;7.30;99.90
21580;DHT22;10951;59.656;9.666;2022-09-01T03:28:31;7.30;99.90
21580;DHT22;10951;59.656;9.666;2022-09-01T03:30:59;7.30;99.90
21580;DHT22;10951;59.656;9.666;2022-09-01T03:33:28;7.30;99.90
21580;DHT22;10951;59.656;9.666;2022-09-01T03:35:56;7.20;99.90
21580;DHT22;10951;59.656;9.666;2022-09-01T03:38:24;7.30;99.90
21580;DHT22;10951;59.656;9.666;2022-09-01T03:40:59;7.20;99.90
21580;DHT22;10951;59.656;9.666;2022-09-01T03:43:30;7.20;99.90
21580;DHT22;10951;59.656;9.666;2022-09-01T03:46:02;7.20;99.90
21580;DHT22;10951;59.656;9.666;2022-09-01T03:48:31;7.20;99.90
21580;DHT22;10951;59.656;9.666;2022-09-01T03:50:59;7.10;99.90
21580;DHT22;10951;59.656;9.666;2022-09-01T03:53:32;7.00;99.90
21580;DHT22;10951;59.656;9.666;2022-09-01T03:56:03;7.10;99.90
21580;DHT22;10951;59.656;9.666;2022-09-01T03:58:32;7.10;99.90
21580;DHT22;10951;59.656;9.666;2022-09-01T04:01:00;7.10;99.90
21580;DHT22;10951;59.656;9.666;2022-09-01T04:03:31;7.10;99.90
21580;DHT22;10951;59.656;9.666;2022-09-01T04:06:02;7.10;99.90
21580;DHT22;10951;59.656;9.666;2022-09-01T04:08:30;7.10;99.90
21580;DHT22;10951;59.656;9.666;2022-09-01T04:11:02;7.10;99.90
21580;DHT22;10951;59.656;9.666;2022-09-01T04:13:39;7.00;99.90
21580;DHT22;10951;59.656;9.666;2022-09-01T04:16:23;7.00;99.90
21580;DHT22;10951;59.656;9.666;2022-09-01T04:19:10;7.00;99.90
21580;DHT22;10951;59.656;9.666;2022-09-01T04:21:57;6.90;99.90
21580;DHT22;10951;59.656;9.666;2022-09-01T04:24:31;6.90;99.90
21580;DHT22;10951;59.656;9.666;2022-09-01T04:27:00;6.80;99.90
21580;DHT22;10951;59.656;9.666;2022-09-01T04:29:33;6.80;99.90
21580;DHT22;10951;59.656;9.666;2022-09-01T04:32:04;6.80;99.90
21580;DHT22;10951;59.656;9.666;2022-09-01T04:34:35;6.80;99.90
21580;DHT22;10951;59.656;9.666;2022-09-01T04:37:12;6.70;99.90
21580;DHT22;10951;59.656;9.666;2022-09-01T04:39:41;6.70;99.90
21580;DHT22;10951;59.656;9.666;2022-09-01T04:42:22;6.60;99.90
21580;DHT22;10951;59.656;9.666;2022-09-01T04:44:53;6.50;99.90
21580;DHT22;10951;59.656;9.666;2022-09-01T04:47:22;6.50;99.90
21580;DHT22;10951;59.656;9.666;2022-09-01T04:50:05;6.40;99.90
21580;DHT22;10951;59.656;9.666;2022-09-01T04:52:45;6.40;99.90
21580;DHT22;10951;59.656;9.666;2022-09-01T04:55:29;6.40;99.90
21580;DHT22;10951;59.656;9.666;2022-09-01T04:57:58;6.40;99.90
21580;DHT22;10951;59.656;9.666;2022-09-01T05:00:27;6.40;99.90
21580;DHT22;10951;59.656;9.666;2022-09-01T05:03:00;6.40;99.90
21580;DHT22;10951;59.656;9.666;2022-09-01T05:05:51;6.40;99.90
21580;DHT22;10951;59.656;9.666;2022-09-01T05:08:21;6.50;99.90
21580;DHT22;10951;59.656;9.666;2022-09-01T05:10:53;6.50;99.90
21580;DHT22;10951;59.656;9.666;2022-09-01T05:13:45;6.50;99.90
21580;DHT22;10951;59.656;9.666;2022-09-01T05:16:16;6.50;99.90
21580;DHT22;10951;59.656;9.666;2022-09-01T05:18:52;6.60;99.90
21580;DHT22;10951;59.656;9.666;2022-09-01T05:21:23;6.60;99.90
21580;DHT22;10951;59.656;9.666;2022-09-01T05:23:52;6.70;99.90
21580;DHT22;10951;59.656;9.666;2022-09-01T05:26:27;6.70;99.90
21580;DHT22;10951;59.656;9.666;2022-09-01T05:28:57;6.90;99.90
21580;DHT22;10951;59.656;9.666;2022-09-01T05:31:27;7.00;99.90
21580;DHT22;10951;59.656;9.666;2022-09-01T05:34:00;7.10;99.90
21580;DHT22;10951;59.656;9.666;2022-09-01T05:36:27;7.20;99.90
21580;DHT22;10951;59.656;9.666;2022-09-01T05:38:57;7.30;99.90
21580;DHT22;10951;59.656;9.666;2022-09-01T05:41:25;7.30;99.90
21580;DHT22;10951;59.656;9.666;2022-09-01T05:43:52;7.40;99.90
21580;DHT22;10951;59.656;9.666;2022-09-01T05:46:26;7.50;99.90
21580;DHT22;10951;59.656;9.666;2022-09-01T05:48:56;7.70;99.90
21580;DHT22;10951;59.656;9.666;2022-09-01T05:51:26;7.70;99.90
21580;DHT22;10951;59.656;9.666;2022-09-01T05:54:17;7.80;99.90
21580;DHT22;10951;59.656;9.666;2022-09-01T05:56:44;7.90;99.90
21580;DHT22;10951;59.656;9.666;2022-09-01T05:59:15;7.90;99.90
21580;DHT22;10951;59.656;9.666;2022-09-01T06:01:56;7.90;99.90
21580;DHT22;10951;59.656;9.666;2022-09-01T06:04:24;7.90;99.90
21580;DHT22;10951;59.656;9.666;2022-09-01T06:06:56;8.00;99.90
21580;DHT22;10951;59.656;9.666;2022-09-01T06:09:42;8.20;99.90
21580;DHT22;10951;59.656;9.666;2022-09-01T06:12:09;8.40;99.90
21580;DHT22;10951;59.656;9.666;2022-09-01T06:14:46;8.60;99.90
21580;DHT22;10951;59.656;9.666;2022-09-01T06:17:16;8.80;99.90
21580;DHT22;10951;59.656;9.666;2022-09-01T06:19:55;9.00;99.90
21580;DHT22;10951;59.656;9.666;2022-09-01T06:22:24;9.30;99.60
21580;DHT22;10951;59.656;9.666;2022-09-01T06:24:52;9.50;99.00
21580;DHT22;10951;59.656;9.666;2022-09-01T06:27:31;9.70;98.50
21580;DHT22;10951;59.656;9.666;2022-09-01T06:29:59;9.90;98.10
21580;DHT22;10951;59.656;9.666;2022-09-01T06:32:26;10.00;97.70
21580;DHT22;10951;59.656;9.666;2022-09-01T06:34:54;10.10;97.30
21580;DHT22;10951;59.656;9.666;2022-09-01T06:37:24;10.20;97.30
21580;DHT22;10951;59.656;9.666;2022-09-01T06:39:56;10.30;97.10
21580;DHT22;10951;59.656;9.666;2022-09-01T06:42:23;10.40;97.10
21580;DHT22;10951;59.656;9.666;2022-09-01T06:44:56;10.50;96.90
21580;DHT22;10951;59.656;9.666;2022-09-01T06:47:23;10.60;96.90
21580;DHT22;10951;59.656;9.666;2022-09-01T06:49:50;10.80;96.50
21580;DHT22;10951;59.656;9.666;2022-09-01T06:52:24;11.00;96.10
21580;DHT22;10951;59.656;9.666;2022-09-01T06:54:52;11.20;95.90
21580;DHT22;10951;59.656;9.666;2022-09-01T06:57:20;11.30;95.60
21580;DHT22;10951;59.656;9.666;2022-09-01T07:00:11;11.50;95.50
21580;DHT22;10951;59.656;9.666;2022-09-01T07:02:53;11.60;94.90
21580;DHT22;10951;59.656;9.666;2022-09-01T07:05:45;11.70;95.00
21580;DHT22;10951;59.656;9.666;2022-09-01T07:08:47;11.80;94.90
21580;DHT22;10951;59.656;9.666;2022-09-01T07:11:36;12.00;94.40
21580;DHT22;10951;59.656;9.666;2022-09-01T07:14:24;12.10;93.90
21580;DHT22;10951;59.656;9.666;2022-09-01T07:16:51;12.10;93.90
21580;DHT22;10951;59.656;9.666;2022-09-01T07:19:38;12.20;93.80
21580;DHT22;10951;59.656;9.666;2022-09-01T07:22:22;12.30;93.80
21580;DHT22;10951;59.656;9.666;2022-09-01T07:25:09;12.40;93.50
21580;DHT22;10951;59.656;9.666;2022-09-01T07:27:47;12.50;93.00
21580;DHT22;10951;59.656;9.666;2022-09-01T07:30:19;12.70;93.30
21580;DHT22;10951;59.656;9.666;2022-09-01T07:32:49;12.80;92.60
21580;DHT22;10951;59.656;9.666;2022-09-01T07:35:20;12.90;92.30
21580;DHT22;10951;59.656;9.666;2022-09-01T07:37:49;12.90;92.30
21580;DHT22;10951;59.656;9.666;2022-09-01T07:40:40;13.00;92.10
21580;DHT22;10951;59.656;9.666;2022-09-01T07:43:46;13.20;91.90
21580;DHT22;10951;59.656;9.666;2022-09-01T07:46:37;13.40;91.70
21580;DHT22;10951;59.656;9.666;2022-09-01T07:49:08;13.60;91.40
21580;DHT22;10951;59.656;9.666;2022-09-01T07:51:55;13.80;91.00
21580;DHT22;10951;59.656;9.666;2022-09-01T07:54:25;14.00;90.70
21580;DHT22;10951;59.656;9.666;2022-09-01T07:56:54;14.20;90.20
21580;DHT22;10951;59.656;9.666;2022-09-01T07:59:22;14.20;90.00
21580;DHT22;10951;59.656;9.666;2022-09-01T08:02:02;14.40;89.80
21580;DHT22;10951;59.656;9.666;2022-09-01T08:04:32;14.60;90.20
21580;DHT22;10951;59.656;9.666;2022-09-01T08:07:00;14.70;88.30
21580;DHT22;10951;59.656;9.666;2022-09-01T08:09:28;14.80;88.30
21580;DHT22;10951;59.656;9.666;2022-09-01T08:12:06;15.00;88.90
21580;DHT22;10951;59.656;9.666;2022-09-01T08:14:42;15.20;88.60
21580;DHT22;10951;59.656;9.666;2022-09-01T08:17:10;15.40;86.10
21580;DHT22;10951;59.656;9.666;2022-09-01T08:20:00;15.60;84.90
21580;DHT22;10951;59.656;9.666;2022-09-01T08:22:57;15.70;84.50
21580;DHT22;10951;59.656;9.666;2022-09-01T08:25:29;15.80;82.20
21580;DHT22;10951;59.656;9.666;2022-09-01T08:27:57;15.70;81.80
21580;DHT22;10951;59.656;9.666;2022-09-01T08:30:26;15.70;82.10
21580;DHT22;10951;59.656;9.666;2022-09-01T08:32:54;15.70;83.40
21580;DHT22;10951;59.656;9.666;2022-09-01T08:35:22;15.80;82.40
21580;DHT22;10951;59.656;9.666;2022-09-01T08:37:51;16.10;82.90
21580;DHT22;10951;59.656;9.666;2022-09-01T08:40:19;16.20;82.50
21580;DHT22;10951;59.656;9.666;2022-09-01T08:43:18;16.40;82.30
21580;DHT22;10951;59.656;9.666;2022-09-01T08:45:53;16.70;79.80
21580;DHT22;10951;59.656;9.666;2022-09-01T08:48:32;16.80;78.30
21580;DHT22;10951;59.656;9.666;2022-09-01T08:51:33;17.00;79.10
21580;DHT22;10951;59.656;9.666;2022-09-01T08:57:06;17.10;75.80
21580;DHT22;10951;59.656;9.666;2022-09-01T08:59:53;17.30;74.10
21580;DHT22;10951;59.656;9.666;2022-09-01T09:02:47;17.30;65.10
21580;DHT22;10951;59.656;9.666;2022-09-01T09:05:30;17.30;65.70
21580;DHT22;10951;59.656;9.666;2022-09-01T09:13:48;17.50;62.70
21580;DHT22;10951;59.656;9.666;2022-09-01T09:16:46;17.50;62.10
21580;DHT22;10951;59.656;9.666;2022-09-01T09:19:35;17.40;61.00
21580;DHT22;10951;59.656;9.666;2022-09-01T09:22:13;17.40;62.00
21580;DHT22;10951;59.656;9.666;2022-09-01T09:27:43;17.70;64.80
21580;DHT22;10951;59.656;9.666;2022-09-01T09:30:23;17.90;60.70
21580;DHT22;10951;59.656;9.666;2022-09-01T09:35:49;17.90;59.10
21580;DHT22;10951;59.656;9.666;2022-09-01T09:38:23;17.90;58.10
21580;DHT22;10951;59.656;9.666;2022-09-01T09:41:02;17.80;59.60
21580;DHT22;10951;59.656;9.666;2022-09-01T09:44:46;17.90;59.90
21580;DHT22;10951;59.656;9.666;2022-09-01T09:46:52;18.00;58.70
21580;DHT22;10951;59.656;9.666;2022-09-01T09:49:21;17.90;58.80
21580;DHT22;10951;59.656;9.666;2022-09-01T09:54:39;17.80;60.00
21580;DHT22;10951;59.656;9.666;2022-09-01T10:00:01;17.80;60.70
21580;DHT22;10951;59.656;9.666;2022-09-01T10:02:41;17.80;59.50
21580;DHT22;10951;59.656;9.666;2022-09-01T10:08:11;17.70;59.00
21580;DHT22;10951;59.656;9.666;2022-09-01T10:10:49;17.80;58.50
21580;DHT22;10951;59.656;9.666;2022-09-01T10:13:25;17.90;60.00
21580;DHT22;10951;59.656;9.666;2022-09-01T10:15:55;18.00;61.30
21580;DHT22;10951;59.656;9.666;2022-09-01T10:18:28;17.80;58.00
21580;DHT22;10951;59.656;9.666;2022-09-01T10:20:59;18.00;59.50
21580;DHT22;10951;59.656;9.666;2022-09-01T10:23:29;18.10;59.30
21580;DHT22;10951;59.656;9.666;2022-09-01T10:26:08;18.20;58.70
21580;DHT22;10951;59.656;9.666;2022-09-01T10:28:47;18.40;60.30
21580;DHT22;10951;59.656;9.666;2022-09-01T10:31:18;18.60;59.20
21580;DHT22;10951;59.656;9.666;2022-09-01T10:33:46;18.80;58.90
21580;DHT22;10951;59.656;9.666;2022-09-01T10:36:14;18.80;57.10
21580;DHT22;10951;59.656;9.666;2022-09-01T10:38:41;18.70;57.30
21580;DHT22;10951;59.656;9.666;2022-09-01T10:44:35;18.70;57.00
21580;DHT22;10951;59.656;9.666;2022-09-01T10:52:55;18.20;57.40
21580;DHT22;10951;59.656;9.666;2022-09-01T10:58:18;18.30;58.80
21580;DHT22;10951;59.656;9.666;2022-09-01T11:01:07;18.50;58.30
21580;DHT22;10951;59.656;9.666;2022-09-01T11:03:51;18.70;58.50
21580;DHT22;10951;59.656;9.666;2022-09-01T11:15:48;19.80;54.60
21580;DHT22;10951;59.656;9.666;2022-09-01T11:18:29;19.80;55.40
21580;DHT22;10951;59.656;9.666;2022-09-01T11:23:44;19.80;54.30
21580;DHT22;10951;59.656;9.666;2022-09-01T11:29:01;20.10;54.60
21580;DHT22;10951;59.656;9.666;2022-09-01T11:31:40;20.20;53.40
21580;DHT22;10951;59.656;9.666;2022-09-01T11:34:13;20.20;52.40
21580;DHT22;10951;59.656;9.666;2022-09-01T11:47:36;20.40;51.60
21580;DHT22;10951;59.656;9.666;2022-09-01T11:55:42;20.20;53.60
21580;DHT22;10951;59.656;9.666;2022-09-01T12:01:09;20.50;52.40
21580;DHT22;10951;59.656;9.666;2022-09-01T12:03:37;20.60;52.40
21580;DHT22;10951;59.656;9.666;2022-09-01T12:06:06;20.50;52.00
21580;DHT22;10951;59.656;9.666;2022-09-01T12:08:39;20.50;52.30
21580;DHT22;10951;59.656;9.666;2022-09-01T12:11:19;20.50;53.10
21580;DHT22;10951;59.656;9.666;2022-09-01T12:14:01;20.60;52.90
21580;DHT22;10951;59.656;9.666;2022-09-01T12:16:34;20.80;54.00
21580;DHT22;10951;59.656;9.666;2022-09-01T12:19:04;21.10;53.20
21580;DHT22;10951;59.656;9.666;2022-09-01T12:21:34;21.10;51.10
21580;DHT22;10951;59.656;9.666;2022-09-01T12:24:23;21.10;51.40
21580;DHT22;10951;59.656;9.666;2022-09-01T12:26:52;21.20;51.80
21580;DHT22;10951;59.656;9.666;2022-09-01T12:29:27;21.30;53.20
21580;DHT22;10951;59.656;9.666;2022-09-01T12:31:58;21.50;51.40
21580;DHT22;10951;59.656;9.666;2022-09-01T12:37:18;21.70;51.80
21580;DHT22;10951;59.656;9.666;2022-09-01T12:39:48;21.90;53.10
21580;DHT22;10951;59.656;9.666;2022-09-01T12:44:51;22.30;50.50
21580;DHT22;10951;59.656;9.666;2022-09-01T12:52:41;22.20;49.80
21580;DHT22;10951;59.656;9.666;2022-09-01T12:55:22;22.30;50.80
21580;DHT22;10951;59.656;9.666;2022-09-01T12:58:09;22.20;50.40
21580;DHT22;10951;59.656;9.666;2022-09-01T13:03:23;22.20;51.30
21580;DHT22;10951;59.656;9.666;2022-09-01T13:05:53;22.20;50.20
21580;DHT22;10951;59.656;9.666;2022-09-01T13:08:22;22.10;50.40
21580;DHT22;10951;59.656;9.666;2022-09-01T13:11:01;22.10;50.80
21580;DHT22;10951;59.656;9.666;2022-09-01T13:13:29;22.00;49.80
21580;DHT22;10951;59.656;9.666;2022-09-01T13:15:59;22.00;50.30
21580;DHT22;10951;59.656;9.666;2022-09-01T13:18:33;21.90;50.20
21580;DHT22;10951;59.656;9.666;2022-09-01T13:21:20;21.70;50.10
21580;DHT22;10951;59.656;9.666;2022-09-01T13:23:48;21.30;50.60
21580;DHT22;10951;59.656;9.666;2022-09-01T13:26:16;21.30;51.40
21580;DHT22;10951;59.656;9.666;2022-09-01T13:28:44;21.40;51.80
21580;DHT22;10951;59.656;9.666;2022-09-01T13:31:12;21.40;51.00
21580;DHT22;10951;59.656;9.666;2022-09-01T13:33:56;21.40;51.20
21580;DHT22;10951;59.656;9.666;2022-09-01T13:36:44;21.30;51.20
21580;DHT22;10951;59.656;9.666;2022-09-01T13:39:18;21.50;51.20
21580;DHT22;10951;59.656;9.666;2022-09-01T13:41:46;21.40;50.60
21580;DHT22;10951;59.656;9.666;2022-09-01T13:44:14;21.40;51.50
21580;DHT22;10951;59.656;9.666;2022-09-01T13:46:44;21.30;51.40
21580;DHT22;10951;59.656;9.666;2022-09-01T13:49:30;21.30;51.40
21580;DHT22;10951;59.656;9.666;2022-09-01T13:52:19;21.30;51.20
21580;DHT22;10951;59.656;9.666;2022-09-01T13:54:47;21.30;51.20
21580;DHT22;10951;59.656;9.666;2022-09-01T13:57:14;21.20;51.20
21580;DHT22;10951;59.656;9.666;2022-09-01T13:59:42;21.00;51.50
21580;DHT22;10951;59.656;9.666;2022-09-01T14:02:10;21.00;51.60
21580;DHT22;10951;59.656;9.666;2022-09-01T14:04:37;21.00;51.60
21580;DHT22;10951;59.656;9.666;2022-09-01T14:07:04;20.90;51.70
21580;DHT22;10951;59.656;9.666;2022-09-01T14:09:33;21.00;52.50
21580;DHT22;10951;59.656;9.666;2022-09-01T14:12:00;21.10;52.00
21580;DHT22;10951;59.656;9.666;2022-09-01T14:14:27;21.10;51.50
21580;DHT22;10951;59.656;9.666;2022-09-01T14:17:14;20.90;51.70
21580;DHT22;10951;59.656;9.666;2022-09-01T14:19:41;20.70;51.80
21580;DHT22;10951;59.656;9.666;2022-09-01T14:22:08;20.60;52.20
21580;DHT22;10951;59.656;9.666;2022-09-01T14:24:35;20.60;53.20
21580;DHT22;10951;59.656;9.666;2022-09-01T14:27:06;20.70;53.00
21580;DHT22;10951;59.656;9.666;2022-09-01T14:29:33;20.90;52.70
21580;DHT22;10951;59.656;9.666;2022-09-01T14:32:02;20.90;52.10
21580;DHT22;10951;59.656;9.666;2022-09-01T14:34:29;21.10;52.20
21580;DHT22;10951;59.656;9.666;2022-09-01T14:36:56;21.10;51.90
21580;DHT22;10951;59.656;9.666;2022-09-01T14:39:23;21.20;51.60
21580;DHT22;10951;59.656;9.666;2022-09-01T14:41:50;21.10;51.40
21580;DHT22;10951;59.656;9.666;2022-09-01T14:44:17;21.00;52.00
21580;DHT22;10951;59.656;9.666;2022-09-01T14:46:44;20.90;52.10
21580;DHT22;10951;59.656;9.666;2022-09-01T14:49:13;20.80;51.90
21580;DHT22;10951;59.656;9.666;2022-09-01T14:51:47;20.90;52.30
21580;DHT22;10951;59.656;9.666;2022-09-01T14:54:36;20.90;52.60
21580;DHT22;10951;59.656;9.666;2022-09-01T14:57:04;20.90;51.90
21580;DHT22;10951;59.656;9.666;2022-09-01T14:59:51;20.90;52.10
21580;DHT22;10951;59.656;9.666;2022-09-01T15:02:18;20.90;52.30
21580;DHT22;10951;59.656;9.666;2022-09-01T15:04:45;20.90;52.50
21580;DHT22;10951;59.656;9.666;2022-09-01T15:07:12;20.80;52.30
21580;DHT22;10951;59.656;9.666;2022-09-01T15:09:40;21.00;52.60
21580;DHT22;10951;59.656;9.666;2022-09-01T15:12:08;21.00;52.10
21580;DHT22;10951;59.656;9.666;2022-09-01T15:14:35;21.10;52.20
21580;DHT22;10951;59.656;9.666;2022-09-01T15:17:02;21.20;52.20
21580;DHT22;10951;59.656;9.666;2022-09-01T15:19:29;21.20;51.80
21580;DHT22;10951;59.656;9.666;2022-09-01T15:21:56;21.30;51.80
21580;DHT22;10951;59.656;9.666;2022-09-01T15:24:23;21.30;51.70
21580;DHT22;10951;59.656;9.666;2022-09-01T15:26:50;21.30;51.60
21580;DHT22;10951;59.656;9.666;2022-09-01T15:29:17;21.10;51.70
21580;DHT22;10951;59.656;9.666;2022-09-01T15:31:44;21.10;52.30
21580;DHT22;10951;59.656;9.666;2022-09-01T15:34:12;21.20;51.60
21580;DHT22;10951;59.656;9.666;2022-09-01T15:36:40;21.20;51.70
21580;DHT22;10951;59.656;9.666;2022-09-01T15:39:08;21.10;51.60
21580;DHT22;10951;59.656;9.666;2022-09-01T15:41:36;21.10;52.00
21580;DHT22;10951;59.656;9.666;2022-09-01T15:44:06;21.20;52.10
21580;DHT22;10951;59.656;9.666;2022-09-01T15:46:34;21.20;51.90
21580;DHT22;10951;59.656;9.666;2022-09-01T15:49:06;21.30;52.10
21580;DHT22;10951;59.656;9.666;2022-09-01T15:51:41;21.20;51.80
21580;DHT22;10951;59.656;9.666;2022-09-01T15:54:11;20.80;51.60
21580;DHT22;10951;59.656;9.666;2022-09-01T15:56:39;20.80;52.20
21580;DHT22;10951;59.656;9.666;2022-09-01T15:59:07;20.80;53.00
21580;DHT22;10951;59.656;9.666;2022-09-01T16:01:36;20.80;52.60
21580;DHT22;10951;59.656;9.666;2022-09-01T16:04:07;20.90;52.50
21580;DHT22;10951;59.656;9.666;2022-09-01T16:06:34;21.00;52.70
21580;DHT22;10951;59.656;9.666;2022-09-01T16:09:01;21.10;52.80
21580;DHT22;10951;59.656;9.666;2022-09-01T16:11:28;21.20;53.30
21580;DHT22;10951;59.656;9.666;2022-09-01T16:13:55;21.30;53.10
21580;DHT22;10951;59.656;9.666;2022-09-01T16:19:24;21.50;52.40
21580;DHT22;10951;59.656;9.666;2022-09-01T16:22:15;21.50;51.80
21580;DHT22;10951;59.656;9.666;2022-09-01T16:24:48;21.50;51.90
21580;DHT22;10951;59.656;9.666;2022-09-01T16:27:18;21.40;52.20
21580;DHT22;10951;59.656;9.666;2022-09-01T16:29:49;21.30;52.50
21580;DHT22;10951;59.656;9.666;2022-09-01T16:32:18;21.30;52.60
21580;DHT22;10951;59.656;9.666;2022-09-01T16:34:50;21.30;52.90
21580;DHT22;10951;59.656;9.666;2022-09-01T16:48:51;20.90;53.30
21580;DHT22;10951;59.656;9.666;2022-09-01T16:54:47;20.70;53.90
21580;DHT22;10951;59.656;9.666;2022-09-01T16:59:54;20.70;53.90
21580;DHT22;10951;59.656;9.666;2022-09-01T17:02:44;20.70;53.90
21580;DHT22;10951;59.656;9.666;2022-09-01T17:05:32;20.60;54.00
21580;DHT22;10951;59.656;9.666;2022-09-01T17:10:50;20.60;54.00
21580;DHT22;10951;59.656;9.666;2022-09-01T17:16:14;20.20;53.00
21580;DHT22;10951;59.656;9.666;2022-09-01T17:18:52;20.00;53.00
21580;DHT22;10951;59.656;9.666;2022-09-01T17:23:57;19.60;53.70
21580;DHT22;10951;59.656;9.666;2022-09-01T17:26:28;19.50;53.90
21580;DHT22;10951;59.656;9.666;2022-09-01T17:29:03;19.50;54.00
21580;DHT22;10951;59.656;9.666;2022-09-01T17:34:48;19.40;54.40
21580;DHT22;10951;59.656;9.666;2022-09-01T17:37:34;19.40;54.50
21580;DHT22;10951;59.656;9.666;2022-09-01T17:43:11;19.10;54.40
21580;DHT22;10951;59.656;9.666;2022-09-01T17:46:01;19.00;54.90
21580;DHT22;10951;59.656;9.666;2022-09-01T17:48:44;18.80;55.30
21580;DHT22;10951;59.656;9.666;2022-09-01T17:51:23;18.60;55.70
21580;DHT22;10951;59.656;9.666;2022-09-01T18:04:35;18.20;57.60
21580;DHT22;10951;59.656;9.666;2022-09-01T18:10:00;18.00;57.90
21580;DHT22;10951;59.656;9.666;2022-09-01T18:12:32;18.00;57.80
21580;DHT22;10951;59.656;9.666;2022-09-01T18:15:11;17.90;58.10
21580;DHT22;10951;59.656;9.666;2022-09-01T18:20:44;17.70;58.00
21580;DHT22;10951;59.656;9.666;2022-09-01T18:23:16;17.60;58.20
21580;DHT22;10951;59.656;9.666;2022-09-01T18:25:56;17.50;58.20
21580;DHT22;10951;59.656;9.666;2022-09-01T18:28:24;17.40;58.60
21580;DHT22;10951;59.656;9.666;2022-09-01T18:31:11;17.30;59.40
21580;DHT22;10951;59.656;9.666;2022-09-01T18:50:38;16.60;63.10
21580;DHT22;10951;59.656;9.666;2022-09-01T19:01:33;16.10;65.00